sensor_id;sensor_type;location;lat;lon;timestamp;P1;durP1;ratioP1;P2;durP2;ratioP2
18693;SDS011;9477;51.414;10.362;2023-02-22T00:01:36;14.00;;;8.00;;
18693;SDS011;9477;51.414;10.362;2023-02-22T00:03:51;20.60;;;7.60;;
18693;SDS011;9477;51.414;10.362;2023-02-22T00:05:54;13.57;;;7.43;;
18693;SDS011;9477;51.414;10.362;2023-02-22T00:07:59;13.90;;;7.03;;
18693;SDS011;9477;51.414;10.362;2023-02-22T00:10:02;15.47;;;7.60;;
18693;SDS011;9477;51.414;10.362;2023-02-22T00:12:09;15.13;;;7.63;;
18693;SDS011;9477;51.414;10.362;2023-02-22T00:14:12;17.33;;;8.97;;
18693;SDS011;9477;51.414;10.362;2023-02-22T00:16:15;19.77;;;7.93;;
18693;SDS011;9477;51.414;10.362;2023-02-22T00:18:22;13.67;;;7.33;;
18693;SDS011;9477;51.414;10.362;2023-02-22T00:20:28;12.63;;;7.73;;
18693;SDS011;9477;51.414;10.362;2023-02-22T00:22:30;11.30;;;7.27;;
18693;SDS011;9477;51.414;10.362;2023-02-22T00:24:33;14.97;;;8.47;;
18693;SDS011;9477;51.414;10.362;2023-02-22T00:26:36;14.93;;;8.10;;
18693;SDS011;9477;51.414;10.362;2023-02-22T00:28:39;15.40;;;7.97;;
18693;SDS011;9477;51.414;10.362;2023-02-22T00:30:42;13.13;;;7.80;;
18693;SDS011;9477;51.414;10.362;2023-02-22T00:32:45;14.90;;;8.30;;
18693;SDS011;9477;51.414;10.362;2023-02-22T00:34:51;16.97;;;8.17;;
18693;SDS011;9477;51.414;10.362;2023-02-22T00:36:54;16.30;;;8.50;;
18693;SDS011;9477;51.414;10.362;2023-02-22T00:38:57;15.13;;;8.77;;
18693;SDS011;9477;51.414;10.362;2023-02-22T00:41:00;13.30;;;8.20;;
18693;SDS011;9477;51.414;10.362;2023-02-22T00:43:03;19.50;;;9.27;;
18693;SDS011;9477;51.414;10.362;2023-02-22T00:45:07;17.47;;;9.67;;
18693;SDS011;9477;51.414;10.362;2023-02-22T00:47:11;18.90;;;8.97;;
18693;SDS011;9477;51.414;10.362;2023-02-22T00:49:13;14.20;;;8.37;;
18693;SDS011;9477;51.414;10.362;2023-02-22T00:51:18;15.77;;;9.00;;
18693;SDS011;9477;51.414;10.362;2023-02-22T00:53:21;17.53;;;9.10;;
18693;SDS011;9477;51.414;10.362;2023-02-22T00:55:25;18.27;;;8.73;;
18693;SDS011;9477;51.414;10.362;2023-02-22T00:57:29;19.03;;;9.63;;
18693;SDS011;9477;51.414;10.362;2023-02-22T00:59:34;15.70;;;8.43;;
18693;SDS011;9477;51.414;10.362;2023-02-22T01:01:37;20.10;;;9.10;;
18693;SDS011;9477;51.414;10.362;2023-02-22T01:03:40;18.87;;;8.47;;
18693;SDS011;9477;51.414;10.362;2023-02-22T01:05:43;15.87;;;8.97;;
18693;SDS011;9477;51.414;10.362;2023-02-22T01:07:47;16.30;;;9.40;;
18693;SDS011;9477;51.414;10.362;2023-02-22T01:09:51;20.37;;;9.70;;
18693;SDS011;9477;51.414;10.362;2023-02-22T01:11:54;18.17;;;9.20;;
18693;SDS011;9477;51.414;10.362;2023-02-22T01:13:57;19.70;;;9.87;;
18693;SDS011;9477;51.414;10.362;2023-02-22T01:16:00;19.67;;;9.80;;
18693;SDS011;9477;51.414;10.362;2023-02-22T01:18:03;20.07;;;9.77;;
18693;SDS011;9477;51.414;10.362;2023-02-22T01:20:08;16.57;;;9.80;;
18693;SDS011;9477;51.414;10.362;2023-02-22T01:22:12;18.10;;;9.70;;
18693;SDS011;9477;51.414;10.362;2023-02-22T01:24:17;17.10;;;9.10;;
18693;SDS011;9477;51.414;10.362;2023-02-22T01:26:19;18.47;;;9.83;;
18693;SDS011;9477;51.414;10.362;2023-02-22T01:28:22;22.77;;;10.90;;
18693;SDS011;9477;51.414;10.362;2023-02-22T01:30:26;20.00;;;10.23;;
18693;SDS011;9477;51.414;10.362;2023-02-22T01:32:30;22.77;;;10.80;;
18693;SDS011;9477;51.414;10.362;2023-02-22T01:34:33;20.73;;;9.93;;
18693;SDS011;9477;51.414;10.362;2023-02-22T01:36:36;22.67;;;10.83;;
18693;SDS011;9477;51.414;10.362;2023-02-22T01:38:40;19.30;;;9.87;;
18693;SDS011;9477;51.414;10.362;2023-02-22T01:40:45;19.70;;;10.47;;
18693;SDS011;9477;51.414;10.362;2023-02-22T01:42:50;23.73;;;11.00;;
18693;SDS011;9477;51.414;10.362;2023-02-22T01:47:34;19.03;;;10.57;;
18693;SDS011;9477;51.414;10.362;2023-02-22T01:49:38;20.43;;;9.50;;
18693;SDS011;9477;51.414;10.362;2023-02-22T01:51:45;17.53;;;10.50;;
18693;SDS011;9477;51.414;10.362;2023-02-22T01:53:50;17.93;;;10.17;;
18693;SDS011;9477;51.414;10.362;2023-02-22T01:55:57;18.53;;;9.77;;
18693;SDS011;9477;51.414;10.362;2023-02-22T01:58:00;18.40;;;9.63;;
18693;SDS011;9477;51.414;10.362;2023-02-22T02:00:05;22.90;;;11.77;;
18693;SDS011;9477;51.414;10.362;2023-02-22T02:02:11;23.20;;;11.17;;
18693;SDS011;9477;51.414;10.362;2023-02-22T02:04:16;21.70;;;10.47;;
18693;SDS011;9477;51.414;10.362;2023-02-22T02:06:25;21.17;;;10.53;;
18693;SDS011;9477;51.414;10.362;2023-02-22T02:08:32;23.63;;;10.43;;
18693;SDS011;9477;51.414;10.362;2023-02-22T02:10:37;22.63;;;11.00;;
18693;SDS011;9477;51.414;10.362;2023-02-22T02:12:43;21.17;;;10.53;;
18693;SDS011;9477;51.414;10.362;2023-02-22T02:14:48;24.73;;;10.73;;
18693;SDS011;9477;51.414;10.362;2023-02-22T02:16:51;21.20;;;11.30;;
18693;SDS011;9477;51.414;10.362;2023-02-22T02:18:56;19.57;;;9.93;;
18693;SDS011;9477;51.414;10.362;2023-02-22T02:21:15;21.00;;;11.13;;
18693;SDS011;9477;51.414;10.362;2023-02-22T02:23:42;18.50;;;10.43;;
18693;SDS011;9477;51.414;10.362;2023-02-22T02:26:05;20.27;;;10.27;;
18693;SDS011;9477;51.414;10.362;2023-02-22T02:28:48;20.83;;;10.40;;
18693;SDS011;9477;51.414;10.362;2023-02-22T02:33:55;21.47;;;10.70;;
18693;SDS011;9477;51.414;10.362;2023-02-22T02:36:05;19.17;;;9.67;;
18693;SDS011;9477;51.414;10.362;2023-02-22T02:38:14;17.57;;;9.57;;
18693;SDS011;9477;51.414;10.362;2023-02-22T02:40:24;20.67;;;9.83;;
18693;SDS011;9477;51.414;10.362;2023-02-22T02:42:32;18.40;;;10.53;;
18693;SDS011;9477;51.414;10.362;2023-02-22T02:44:40;18.40;;;9.40;;
18693;SDS011;9477;51.414;10.362;2023-02-22T02:46:49;18.07;;;10.03;;
18693;SDS011;9477;51.414;10.362;2023-02-22T02:48:58;19.53;;;10.27;;
18693;SDS011;9477;51.414;10.362;2023-02-22T02:51:05;22.73;;;10.57;;
18693;SDS011;9477;51.414;10.362;2023-02-22T02:53:15;21.23;;;10.60;;
18693;SDS011;9477;51.414;10.362;2023-02-22T02:55:21;20.07;;;10.10;;
18693;SDS011;9477;51.414;10.362;2023-02-22T02:57:25;21.17;;;10.27;;
18693;SDS011;9477;51.414;10.362;2023-02-22T02:59:28;20.87;;;10.23;;
18693;SDS011;9477;51.414;10.362;2023-02-22T03:01:49;20.27;;;10.13;;
18693;SDS011;9477;51.414;10.362;2023-02-22T03:04:04;19.10;;;9.73;;
18693;SDS011;9477;51.414;10.362;2023-02-22T03:06:24;18.83;;;9.73;;
18693;SDS011;9477;51.414;10.362;2023-02-22T03:08:40;20.77;;;10.10;;
18693;SDS011;9477;51.414;10.362;2023-02-22T03:10:46;19.13;;;9.53;;
18693;SDS011;9477;51.414;10.362;2023-02-22T03:12:59;19.30;;;9.27;;
18693;SDS011;9477;51.414;10.362;2023-02-22T03:15:09;19.77;;;9.53;;
18693;SDS011;9477;51.414;10.362;2023-02-22T03:17:25;22.77;;;10.43;;
18693;SDS011;9477;51.414;10.362;2023-02-22T03:19:34;17.10;;;9.27;;
18693;SDS011;9477;51.414;10.362;2023-02-22T03:21:43;17.93;;;9.60;;
18693;SDS011;9477;51.414;10.362;2023-02-22T03:23:54;15.50;;;9.80;;
18693;SDS011;9477;51.414;10.362;2023-02-22T03:26:07;19.23;;;9.80;;
18693;SDS011;9477;51.414;10.362;2023-02-22T03:28:14;19.53;;;9.00;;
18693;SDS011;9477;51.414;10.362;2023-02-22T03:30:21;16.57;;;8.80;;
18693;SDS011;9477;51.414;10.362;2023-02-22T03:32:32;14.57;;;7.77;;
18693;SDS011;9477;51.414;10.362;2023-02-22T03:34:39;15.80;;;7.73;;
18693;SDS011;9477;51.414;10.362;2023-02-22T03:36:46;15.63;;;8.03;;
18693;SDS011;9477;51.414;10.362;2023-02-22T03:38:52;17.40;;;8.90;;
18693;SDS011;9477;51.414;10.362;2023-02-22T03:40:57;16.80;;;8.33;;
18693;SDS011;9477;51.414;10.362;2023-02-22T03:43:04;15.47;;;7.70;;
18693;SDS011;9477;51.414;10.362;2023-02-22T03:45:10;17.37;;;8.10;;
18693;SDS011;9477;51.414;10.362;2023-02-22T03:47:17;16.60;;;8.50;;
18693;SDS011;9477;51.414;10.362;2023-02-22T03:49:26;17.93;;;9.23;;
18693;SDS011;9477;51.414;10.362;2023-02-22T03:51:36;16.70;;;8.23;;
18693;SDS011;9477;51.414;10.362;2023-02-22T03:53:39;18.67;;;8.43;;
18693;SDS011;9477;51.414;10.362;2023-02-22T03:55:44;17.47;;;8.30;;
18693;SDS011;9477;51.414;10.362;2023-02-22T03:57:52;17.33;;;8.93;;
18693;SDS011;9477;51.414;10.362;2023-02-22T03:59:58;15.83;;;8.50;;
18693;SDS011;9477;51.414;10.362;2023-02-22T04:02:01;14.27;;;7.80;;
18693;SDS011;9477;51.414;10.362;2023-02-22T04:04:04;19.23;;;9.13;;
18693;SDS011;9477;51.414;10.362;2023-02-22T04:06:08;16.47;;;8.37;;
18693;SDS011;9477;51.414;10.362;2023-02-22T04:08:12;17.80;;;9.00;;
18693;SDS011;9477;51.414;10.362;2023-02-22T04:10:15;18.40;;;8.83;;
18693;SDS011;9477;51.414;10.362;2023-02-22T04:12:18;15.73;;;8.20;;
18693;SDS011;9477;51.414;10.362;2023-02-22T04:14:21;16.77;;;8.70;;
18693;SDS011;9477;51.414;10.362;2023-02-22T04:16:24;17.33;;;8.37;;
18693;SDS011;9477;51.414;10.362;2023-02-22T04:18:26;19.00;;;8.80;;
18693;SDS011;9477;51.414;10.362;2023-02-22T04:20:29;15.00;;;7.73;;
18693;SDS011;9477;51.414;10.362;2023-02-22T04:22:33;16.97;;;8.93;;
18693;SDS011;9477;51.414;10.362;2023-02-22T04:24:36;17.23;;;8.23;;
18693;SDS011;9477;51.414;10.362;2023-02-22T04:26:39;18.93;;;8.40;;
18693;SDS011;9477;51.414;10.362;2023-02-22T04:28:42;16.57;;;8.17;;
18693;SDS011;9477;51.414;10.362;2023-02-22T04:30:45;15.83;;;8.40;;
18693;SDS011;9477;51.414;10.362;2023-02-22T04:32:48;18.90;;;9.27;;
18693;SDS011;9477;51.414;10.362;2023-02-22T04:34:51;17.37;;;9.23;;
18693;SDS011;9477;51.414;10.362;2023-02-22T04:36:53;18.37;;;9.60;;
18693;SDS011;9477;51.414;10.362;2023-02-22T04:38:58;19.63;;;9.27;;
18693;SDS011;9477;51.414;10.362;2023-02-22T04:41:01;22.10;;;9.67;;
18693;SDS011;9477;51.414;10.362;2023-02-22T04:43:03;17.27;;;8.50;;
18693;SDS011;9477;51.414;10.362;2023-02-22T04:45:07;23.80;;;9.60;;
18693;SDS011;9477;51.414;10.362;2023-02-22T04:47:10;16.67;;;9.13;;
18693;SDS011;9477;51.414;10.362;2023-02-22T04:49:13;17.33;;;9.17;;
18693;SDS011;9477;51.414;10.362;2023-02-22T04:51:16;21.13;;;10.67;;
18693;SDS011;9477;51.414;10.362;2023-02-22T04:53:20;19.70;;;10.60;;
18693;SDS011;9477;51.414;10.362;2023-02-22T04:55:24;21.53;;;11.10;;
18693;SDS011;9477;51.414;10.362;2023-02-22T04:57:28;24.63;;;9.97;;
18693;SDS011;9477;51.414;10.362;2023-02-22T04:59:31;24.63;;;10.63;;
18693;SDS011;9477;51.414;10.362;2023-02-22T05:01:34;21.27;;;9.43;;
18693;SDS011;9477;51.414;10.362;2023-02-22T05:03:38;17.60;;;9.93;;
18693;SDS011;9477;51.414;10.362;2023-02-22T05:05:40;22.00;;;10.73;;
18693;SDS011;9477;51.414;10.362;2023-02-22T05:07:43;19.00;;;10.53;;
18693;SDS011;9477;51.414;10.362;2023-02-22T05:09:46;19.67;;;10.33;;
18693;SDS011;9477;51.414;10.362;2023-02-22T05:11:50;23.07;;;11.03;;
18693;SDS011;9477;51.414;10.362;2023-02-22T05:13:53;21.53;;;10.30;;
18693;SDS011;9477;51.414;10.362;2023-02-22T05:15:56;26.63;;;13.43;;
18693;SDS011;9477;51.414;10.362;2023-02-22T05:17:59;25.70;;;13.90;;
18693;SDS011;9477;51.414;10.362;2023-02-22T05:20:02;26.03;;;11.70;;
18693;SDS011;9477;51.414;10.362;2023-02-22T05:22:06;22.57;;;11.43;;
18693;SDS011;9477;51.414;10.362;2023-02-22T05:24:09;18.90;;;10.27;;
18693;SDS011;9477;51.414;10.362;2023-02-22T05:26:12;21.57;;;10.23;;
18693;SDS011;9477;51.414;10.362;2023-02-22T05:28:16;22.23;;;10.50;;
18693;SDS011;9477;51.414;10.362;2023-02-22T05:30:19;19.50;;;9.67;;
18693;SDS011;9477;51.414;10.362;2023-02-22T05:32:24;20.03;;;9.77;;
18693;SDS011;9477;51.414;10.362;2023-02-22T05:34:28;27.20;;;11.00;;
18693;SDS011;9477;51.414;10.362;2023-02-22T05:36:30;19.93;;;11.03;;
18693;SDS011;9477;51.414;10.362;2023-02-22T05:38:34;22.27;;;10.40;;
18693;SDS011;9477;51.414;10.362;2023-02-22T05:40:43;22.50;;;10.77;;
18693;SDS011;9477;51.414;10.362;2023-02-22T05:42:46;23.00;;;10.53;;
18693;SDS011;9477;51.414;10.362;2023-02-22T05:44:50;22.93;;;10.20;;
18693;SDS011;9477;51.414;10.362;2023-02-22T05:46:53;19.20;;;10.40;;
18693;SDS011;9477;51.414;10.362;2023-02-22T05:48:56;22.53;;;9.50;;
18693;SDS011;9477;51.414;10.362;2023-02-22T05:50:58;22.43;;;10.40;;
18693;SDS011;9477;51.414;10.362;2023-02-22T05:53:01;19.60;;;10.20;;
18693;SDS011;9477;51.414;10.362;2023-02-22T05:55:06;21.33;;;10.90;;
18693;SDS011;9477;51.414;10.362;2023-02-22T05:57:10;24.10;;;10.20;;
18693;SDS011;9477;51.414;10.362;2023-02-22T05:59:12;19.67;;;9.80;;
18693;SDS011;9477;51.414;10.362;2023-02-22T06:01:17;20.50;;;10.63;;
18693;SDS011;9477;51.414;10.362;2023-02-22T06:03:21;26.30;;;10.70;;
18693;SDS011;9477;51.414;10.362;2023-02-22T06:05:23;20.53;;;10.60;;
18693;SDS011;9477;51.414;10.362;2023-02-22T06:07:27;24.70;;;12.17;;
18693;SDS011;9477;51.414;10.362;2023-02-22T06:09:30;26.17;;;12.93;;
18693;SDS011;9477;51.414;10.362;2023-02-22T06:11:32;29.60;;;13.13;;
18693;SDS011;9477;51.414;10.362;2023-02-22T06:13:35;20.77;;;10.67;;
18693;SDS011;9477;51.414;10.362;2023-02-22T06:15:38;26.83;;;11.27;;
18693;SDS011;9477;51.414;10.362;2023-02-22T06:17:42;23.83;;;11.13;;
18693;SDS011;9477;51.414;10.362;2023-02-22T06:19:46;26.30;;;11.93;;
18693;SDS011;9477;51.414;10.362;2023-02-22T06:21:49;28.60;;;13.13;;
18693;SDS011;9477;51.414;10.362;2023-02-22T06:23:52;27.20;;;13.07;;
18693;SDS011;9477;51.414;10.362;2023-02-22T06:25:54;25.13;;;11.03;;
18693;SDS011;9477;51.414;10.362;2023-02-22T06:27:57;27.77;;;12.00;;
18693;SDS011;9477;51.414;10.362;2023-02-22T06:30:01;22.77;;;11.03;;
18693;SDS011;9477;51.414;10.362;2023-02-22T06:32:04;23.27;;;11.87;;
18693;SDS011;9477;51.414;10.362;2023-02-22T06:34:08;23.30;;;11.17;;
18693;SDS011;9477;51.414;10.362;2023-02-22T06:36:11;25.17;;;12.37;;
18693;SDS011;9477;51.414;10.362;2023-02-22T06:38:19;24.37;;;11.33;;
18693;SDS011;9477;51.414;10.362;2023-02-22T06:40:23;23.63;;;11.07;;
18693;SDS011;9477;51.414;10.362;2023-02-22T06:42:29;23.20;;;10.90;;
18693;SDS011;9477;51.414;10.362;2023-02-22T06:44:32;26.33;;;10.57;;
18693;SDS011;9477;51.414;10.362;2023-02-22T06:46:35;19.60;;;9.73;;
18693;SDS011;9477;51.414;10.362;2023-02-22T06:48:37;22.53;;;9.80;;
18693;SDS011;9477;51.414;10.362;2023-02-22T06:50:42;21.37;;;10.47;;
18693;SDS011;9477;51.414;10.362;2023-02-22T06:52:45;22.53;;;11.40;;
18693;SDS011;9477;51.414;10.362;2023-02-22T06:54:48;22.47;;;11.40;;
18693;SDS011;9477;51.414;10.362;2023-02-22T06:56:51;24.73;;;11.40;;
18693;SDS011;9477;51.414;10.362;2023-02-22T06:58:54;22.27;;;10.20;;
18693;SDS011;9477;51.414;10.362;2023-02-22T07:00:57;25.47;;;10.90;;
18693;SDS011;9477;51.414;10.362;2023-02-22T07:03:02;20.37;;;10.70;;
18693;SDS011;9477;51.414;10.362;2023-02-22T07:05:06;21.30;;;11.47;;
18693;SDS011;9477;51.414;10.362;2023-02-22T07:07:10;22.73;;;10.77;;
18693;SDS011;9477;51.414;10.362;2023-02-22T07:09:13;34.73;;;16.93;;
18693;SDS011;9477;51.414;10.362;2023-02-22T07:11:16;32.50;;;17.13;;
18693;SDS011;9477;51.414;10.362;2023-02-22T07:13:19;33.57;;;16.57;;
18693;SDS011;9477;51.414;10.362;2023-02-22T07:15:23;35.40;;;18.87;;
18693;SDS011;9477;51.414;10.362;2023-02-22T07:17:28;29.07;;;14.40;;
18693;SDS011;9477;51.414;10.362;2023-02-22T07:19:30;27.17;;;12.90;;
18693;SDS011;9477;51.414;10.362;2023-02-22T07:21:33;27.13;;;12.90;;
18693;SDS011;9477;51.414;10.362;2023-02-22T07:23:37;25.63;;;12.77;;
18693;SDS011;9477;51.414;10.362;2023-02-22T07:25:40;23.90;;;12.17;;
18693;SDS011;9477;51.414;10.362;2023-02-22T07:27:43;22.53;;;11.90;;
18693;SDS011;9477;51.414;10.362;2023-02-22T07:29:47;22.60;;;11.73;;
18693;SDS011;9477;51.414;10.362;2023-02-22T07:31:50;20.33;;;10.50;;
18693;SDS011;9477;51.414;10.362;2023-02-22T07:33:52;25.50;;;11.13;;
18693;SDS011;9477;51.414;10.362;2023-02-22T07:35:55;23.40;;;11.00;;
18693;SDS011;9477;51.414;10.362;2023-02-22T07:37:58;24.10;;;11.33;;
18693;SDS011;9477;51.414;10.362;2023-02-22T07:40:02;23.77;;;11.20;;
18693;SDS011;9477;51.414;10.362;2023-02-22T07:42:06;19.70;;;10.40;;
18693;SDS011;9477;51.414;10.362;2023-02-22T07:44:09;23.90;;;11.27;;
18693;SDS011;9477;51.414;10.362;2023-02-22T07:46:13;20.97;;;10.87;;
18693;SDS011;9477;51.414;10.362;2023-02-22T07:48:16;22.03;;;10.60;;
18693;SDS011;9477;51.414;10.362;2023-02-22T07:50:21;16.87;;;9.73;;
18693;SDS011;9477;51.414;10.362;2023-02-22T07:52:25;20.13;;;10.50;;
18693;SDS011;9477;51.414;10.362;2023-02-22T07:54:28;21.80;;;10.80;;
18693;SDS011;9477;51.414;10.362;2023-02-22T07:56:32;27.23;;;11.50;;
18693;SDS011;9477;51.414;10.362;2023-02-22T07:58:34;21.00;;;11.17;;
18693;SDS011;9477;51.414;10.362;2023-02-22T08:00:38;20.73;;;10.57;;
18693;SDS011;9477;51.414;10.362;2023-02-22T08:02:41;21.70;;;11.30;;
18693;SDS011;9477;51.414;10.362;2023-02-22T08:04:44;22.03;;;11.47;;
18693;SDS011;9477;51.414;10.362;2023-02-22T08:06:47;22.10;;;10.83;;
18693;SDS011;9477;51.414;10.362;2023-02-22T08:08:50;27.03;;;11.40;;
18693;SDS011;9477;51.414;10.362;2023-02-22T08:10:53;20.13;;;10.53;;
18693;SDS011;9477;51.414;10.362;2023-02-22T08:12:58;19.70;;;10.13;;
18693;SDS011;9477;51.414;10.362;2023-02-22T08:15:02;22.03;;;11.23;;
18693;SDS011;9477;51.414;10.362;2023-02-22T08:17:05;23.13;;;12.00;;
18693;SDS011;9477;51.414;10.362;2023-02-22T08:19:09;23.77;;;11.53;;
18693;SDS011;9477;51.414;10.362;2023-02-22T08:21:11;26.30;;;11.33;;
18693;SDS011;9477;51.414;10.362;2023-02-22T08:23:15;22.80;;;11.50;;
18693;SDS011;9477;51.414;10.362;2023-02-22T08:25:20;21.43;;;10.90;;
18693;SDS011;9477;51.414;10.362;2023-02-22T08:27:25;20.60;;;10.47;;
18693;SDS011;9477;51.414;10.362;2023-02-22T08:29:30;18.23;;;10.20;;
18693;SDS011;9477;51.414;10.362;2023-02-22T08:31:33;22.80;;;11.60;;
18693;SDS011;9477;51.414;10.362;2023-02-22T08:33:36;21.40;;;10.00;;
18693;SDS011;9477;51.414;10.362;2023-02-22T08:35:39;17.37;;;10.23;;
18693;SDS011;9477;51.414;10.362;2023-02-22T08:37:42;18.80;;;10.53;;
18693;SDS011;9477;51.414;10.362;2023-02-22T08:39:45;20.07;;;10.10;;
18693;SDS011;9477;51.414;10.362;2023-02-22T08:41:47;17.83;;;10.50;;
18693;SDS011;9477;51.414;10.362;2023-02-22T08:43:50;18.00;;;9.83;;
18693;SDS011;9477;51.414;10.362;2023-02-22T08:45:55;17.40;;;10.23;;
18693;SDS011;9477;51.414;10.362;2023-02-22T08:47:58;17.57;;;9.97;;
18693;SDS011;9477;51.414;10.362;2023-02-22T08:50:01;18.57;;;9.40;;
18693;SDS011;9477;51.414;10.362;2023-02-22T08:52:04;16.90;;;9.97;;
18693;SDS011;9477;51.414;10.362;2023-02-22T08:54:06;16.77;;;9.83;;
18693;SDS011;9477;51.414;10.362;2023-02-22T08:56:09;18.53;;;10.17;;
18693;SDS011;9477;51.414;10.362;2023-02-22T08:58:12;19.00;;;10.37;;
18693;SDS011;9477;51.414;10.362;2023-02-22T09:00:16;15.60;;;9.47;;
18693;SDS011;9477;51.414;10.362;2023-02-22T09:02:20;18.13;;;10.10;;
18693;SDS011;9477;51.414;10.362;2023-02-22T09:04:25;17.30;;;10.10;;
18693;SDS011;9477;51.414;10.362;2023-02-22T09:06:28;17.97;;;9.57;;
18693;SDS011;9477;51.414;10.362;2023-02-22T09:08:31;17.57;;;9.43;;
18693;SDS011;9477;51.414;10.362;2023-02-22T09:10:33;16.13;;;8.93;;
18693;SDS011;9477;51.414;10.362;2023-02-22T09:12:37;15.83;;;9.50;;
18693;SDS011;9477;51.414;10.362;2023-02-22T09:14:39;16.60;;;9.47;;
18693;SDS011;9477;51.414;10.362;2023-02-22T09:16:43;18.70;;;10.50;;
18693;SDS011;9477;51.414;10.362;2023-02-22T09:18:47;17.23;;;10.20;;
18693;SDS011;9477;51.414;10.362;2023-02-22T09:20:50;16.97;;;9.97;;
18693;SDS011;9477;51.414;10.362;2023-02-22T09:22:53;16.77;;;9.30;;
18693;SDS011;9477;51.414;10.362;2023-02-22T09:24:56;14.43;;;9.23;;
18693;SDS011;9477;51.414;10.362;2023-02-22T09:27:08;16.00;;;8.77;;
18693;SDS011;9477;51.414;10.362;2023-02-22T09:29:12;13.77;;;8.87;;
18693;SDS011;9477;51.414;10.362;2023-02-22T09:31:15;14.73;;;9.30;;
18693;SDS011;9477;51.414;10.362;2023-02-22T09:33:19;14.00;;;8.70;;
18693;SDS011;9477;51.414;10.362;2023-02-22T09:35:24;16.00;;;7.97;;
18693;SDS011;9477;51.414;10.362;2023-02-22T09:37:28;17.53;;;8.80;;
18693;SDS011;9477;51.414;10.362;2023-02-22T09:39:31;16.87;;;8.27;;
18693;SDS011;9477;51.414;10.362;2023-02-22T09:41:38;16.03;;;8.83;;
18693;SDS011;9477;51.414;10.362;2023-02-22T09:43:48;16.03;;;9.40;;
18693;SDS011;9477;51.414;10.362;2023-02-22T09:48:24;14.63;;;8.10;;
18693;SDS011;9477;51.414;10.362;2023-02-22T09:50:34;17.60;;;9.10;;
18693;SDS011;9477;51.414;10.362;2023-02-22T09:52:44;16.27;;;8.40;;
18693;SDS011;9477;51.414;10.362;2023-02-22T09:54:59;14.30;;;9.30;;
18693;SDS011;9477;51.414;10.362;2023-02-22T09:57:09;14.93;;;8.40;;
18693;SDS011;9477;51.414;10.362;2023-02-22T09:59:17;14.93;;;8.77;;
18693;SDS011;9477;51.414;10.362;2023-02-22T10:01:27;13.60;;;8.20;;
18693;SDS011;9477;51.414;10.362;2023-02-22T10:03:34;14.50;;;8.90;;
18693;SDS011;9477;51.414;10.362;2023-02-22T10:05:44;12.73;;;8.83;;
18693;SDS011;9477;51.414;10.362;2023-02-22T10:07:54;14.50;;;9.20;;
18693;SDS011;9477;51.414;10.362;2023-02-22T10:10:01;13.87;;;8.83;;
18693;SDS011;9477;51.414;10.362;2023-02-22T10:12:08;14.70;;;8.27;;
18693;SDS011;9477;51.414;10.362;2023-02-22T10:14:24;12.33;;;8.07;;
18693;SDS011;9477;51.414;10.362;2023-02-22T10:16:37;11.37;;;8.23;;
18693;SDS011;9477;51.414;10.362;2023-02-22T10:21:36;12.10;;;7.97;;
18693;SDS011;9477;51.414;10.362;2023-02-22T10:24:00;10.40;;;7.57;;
18693;SDS011;9477;51.414;10.362;2023-02-22T10:26:13;14.43;;;7.33;;
18693;SDS011;9477;51.414;10.362;2023-02-22T10:28:18;12.70;;;7.57;;
18693;SDS011;9477;51.414;10.362;2023-02-22T10:30:25;12.07;;;7.43;;
18693;SDS011;9477;51.414;10.362;2023-02-22T10:32:37;10.93;;;7.90;;
18693;SDS011;9477;51.414;10.362;2023-02-22T10:34:46;11.27;;;6.80;;
18693;SDS011;9477;51.414;10.362;2023-02-22T10:36:54;13.17;;;7.13;;
18693;SDS011;9477;51.414;10.362;2023-02-22T10:39:06;11.83;;;7.53;;
18693;SDS011;9477;51.414;10.362;2023-02-22T10:41:18;11.63;;;7.30;;
18693;SDS011;9477;51.414;10.362;2023-02-22T10:43:27;10.37;;;6.67;;
18693;SDS011;9477;51.414;10.362;2023-02-22T10:45:31;12.27;;;7.03;;
18693;SDS011;9477;51.414;10.362;2023-02-22T10:47:37;10.63;;;7.10;;
18693;SDS011;9477;51.414;10.362;2023-02-22T10:49:41;11.50;;;6.70;;
18693;SDS011;9477;51.414;10.362;2023-02-22T10:51:47;8.33;;;5.90;;
18693;SDS011;9477;51.414;10.362;2023-02-22T10:54:07;7.77;;;5.90;;
18693;SDS011;9477;51.414;10.362;2023-02-22T10:56:26;7.87;;;5.83;;
18693;SDS011;9477;51.414;10.362;2023-02-22T10:58:29;7.47;;;5.67;;
18693;SDS011;9477;51.414;10.362;2023-02-22T11:00:42;9.37;;;6.07;;
18693;SDS011;9477;51.414;10.362;2023-02-22T11:02:48;10.13;;;6.00;;
18693;SDS011;9477;51.414;10.362;2023-02-22T11:04:54;8.27;;;5.90;;
18693;SDS011;9477;51.414;10.362;2023-02-22T11:07:12;8.37;;;6.03;;
18693;SDS011;9477;51.414;10.362;2023-02-22T11:09:22;7.63;;;5.57;;
18693;SDS011;9477;51.414;10.362;2023-02-22T11:11:25;10.70;;;6.07;;
18693;SDS011;9477;51.414;10.362;2023-02-22T11:13:29;7.77;;;5.60;;
18693;SDS011;9477;51.414;10.362;2023-02-22T11:15:34;8.77;;;5.70;;
18693;SDS011;9477;51.414;10.362;2023-02-22T11:17:37;7.57;;;5.20;;
18693;SDS011;9477;51.414;10.362;2023-02-22T11:19:44;8.73;;;5.80;;
18693;SDS011;9477;51.414;10.362;2023-02-22T11:21:48;8.80;;;5.50;;
18693;SDS011;9477;51.414;10.362;2023-02-22T11:24:01;8.03;;;5.60;;
18693;SDS011;9477;51.414;10.362;2023-02-22T11:26:06;9.47;;;6.30;;
18693;SDS011;9477;51.414;10.362;2023-02-22T11:28:13;9.43;;;6.43;;
18693;SDS011;9477;51.414;10.362;2023-02-22T11:30:31;8.30;;;6.00;;
18693;SDS011;9477;51.414;10.362;2023-02-22T11:32:35;9.93;;;6.53;;
18693;SDS011;9477;51.414;10.362;2023-02-22T11:34:45;10.83;;;6.47;;
18693;SDS011;9477;51.414;10.362;2023-02-22T11:36:55;9.00;;;6.00;;
18693;SDS011;9477;51.414;10.362;2023-02-22T11:38:58;8.43;;;5.80;;
18693;SDS011;9477;51.414;10.362;2023-02-22T11:41:08;11.83;;;6.67;;
18693;SDS011;9477;51.414;10.362;2023-02-22T11:43:16;9.03;;;6.40;;
18693;SDS011;9477;51.414;10.362;2023-02-22T11:45:20;8.57;;;5.63;;
18693;SDS011;9477;51.414;10.362;2023-02-22T11:47:25;9.07;;;5.93;;
18693;SDS011;9477;51.414;10.362;2023-02-22T11:49:31;9.20;;;6.70;;
18693;SDS011;9477;51.414;10.362;2023-02-22T11:51:40;11.07;;;6.17;;
18693;SDS011;9477;51.414;10.362;2023-02-22T11:54:03;8.13;;;5.90;;
18693;SDS011;9477;51.414;10.362;2023-02-22T11:56:28;8.40;;;5.60;;
18693;SDS011;9477;51.414;10.362;2023-02-22T11:58:40;7.50;;;5.63;;
18693;SDS011;9477;51.414;10.362;2023-02-22T12:00:49;9.07;;;5.23;;
18693;SDS011;9477;51.414;10.362;2023-02-22T12:03:06;7.90;;;5.83;;
18693;SDS011;9477;51.414;10.362;2023-02-22T12:05:30;6.63;;;5.00;;
18693;SDS011;9477;51.414;10.362;2023-02-22T12:07:48;8.23;;;5.70;;
18693;SDS011;9477;51.414;10.362;2023-02-22T12:10:20;7.77;;;5.30;;
18693;SDS011;9477;51.414;10.362;2023-02-22T12:12:36;8.07;;;5.60;;
18693;SDS011;9477;51.414;10.362;2023-02-22T12:14:50;8.27;;;5.20;;
18693;SDS011;9477;51.414;10.362;2023-02-22T12:17:09;7.50;;;5.77;;
18693;SDS011;9477;51.414;10.362;2023-02-22T12:19:22;9.70;;;6.03;;
18693;SDS011;9477;51.414;10.362;2023-02-22T12:21:32;7.00;;;5.53;;
18693;SDS011;9477;51.414;10.362;2023-02-22T12:23:40;7.73;;;5.63;;
18693;SDS011;9477;51.414;10.362;2023-02-22T12:25:51;8.07;;;6.03;;
18693;SDS011;9477;51.414;10.362;2023-02-22T12:28:01;9.30;;;6.27;;
18693;SDS011;9477;51.414;10.362;2023-02-22T12:30:25;9.80;;;5.77;;
18693;SDS011;9477;51.414;10.362;2023-02-22T12:32:32;9.00;;;5.60;;
18693;SDS011;9477;51.414;10.362;2023-02-22T12:34:42;11.77;;;5.77;;
18693;SDS011;9477;51.414;10.362;2023-02-22T12:36:50;8.13;;;5.40;;